Costa Adriatica — IFQQ — position and weather

sailwx.info

Track history (hours):
 
Tides and Currents Weather Stations Pressure Air Temp Water Temp Dewpoint Dewpoint Depression Visibility Wind Speed Wind Dir Waves Ship Positions

Costa Adriatica

Last reported at 2019-Jul-26 16:44 UTC. Time now 2019-Dec-15 09:54 UTC.
Position N 41°57' E 016°01'.
Warning: this ship's position is months out of date.

Length 28 m.

Type: Passenger vessel. MMSI: 247194400.

Date/timePositionNaut miles runAvg speedWind from/ knotsBaromVisibWave heightAir tempDewpointWater temp
2019-Jul-26 16:44N 41°57' E 016°01'1211.5
2019-Jul-26 15:39N 42°01' E 015°45'316.3
2019-Jul-26 15:30N 42°02' E 015°42'1013.5
2019-Jul-26 14:46N 42°07' E 015°30'0 0.5
2019-Jul-26 13:50N 42°08' E 015°30'0 0.0
2019-Jul-26 12:57N 42°08' E 015°30'  
2019-Jul-20 16:40N 41°57' E 016°00'514.1
2019-Jul-20 16:17N 41°56' E 015°53'2 7.0
2019-Jul-20 16:00N 41°57' E 015°51'1816.7
2019-Jul-20 14:55N 42°07' E 015°30'0 0.7
2019-Jul-20 14:19N 42°07' E 015°30'  
Track history (hours):
 
Tides and Currents Weather Stations Pressure Air Temp Water Temp Dewpoint Dewpoint Depression Visibility Wind Speed Wind Dir Waves Ship Positions

Costa Adriatica

Last reported at 2019-Jul-26 16:44 UTC. Time now 2019-Dec-15 09:54 UTC.
Position N 41°57' E 016°01'.
Warning: this ship's position is months out of date.

Length 28 m.

Type: Passenger vessel. MMSI: 247194400.

Date/timePositionNaut miles runAvg speedWind from/ knotsBaromVisibWave heightAir tempDewpointWater temp
2019-Jul-26 16:44N 41°57' E 016°01'1211.5
2019-Jul-26 15:39N 42°01' E 015°45'316.3
2019-Jul-26 15:30N 42°02' E 015°42'1013.5
2019-Jul-26 14:46N 42°07' E 015°30'0 0.5
2019-Jul-26 13:50N 42°08' E 015°30'0 0.0
2019-Jul-26 12:57N 42°08' E 015°30'  
2019-Jul-20 16:40N 41°57' E 016°00'514.1
2019-Jul-20 16:17N 41°56' E 015°53'2 7.0
2019-Jul-20 16:00N 41°57' E 015°51'1816.7
2019-Jul-20 14:55N 42°07' E 015°30'0 0.7
2019-Jul-20 14:19N 42°07' E 015°30'  

Dump ship's entire track history